createdAt,value
2023-02-24T00:00:13.367Z,997.76
2023-02-24T00:01:13.454Z,997.78
2023-02-24T00:02:13.818Z,997.80
2023-02-24T00:03:14.218Z,997.76
2023-02-24T00:04:13.475Z,997.73
2023-02-24T00:05:13.438Z,997.72
2023-02-24T00:06:13.734Z,997.77
2023-02-24T00:07:14.006Z,997.71
2023-02-24T00:08:12.939Z,997.70
2023-02-24T00:09:13.135Z,997.69
2023-02-24T00:10:13.144Z,997.68
2023-02-24T00:11:13.280Z,997.66
2023-02-24T00:12:13.398Z,997.62
2023-02-24T00:13:13.378Z,997.61
2023-02-24T00:14:18.491Z,997.63
2023-02-24T00:15:13.557Z,997.60
2023-02-24T00:16:13.989Z,997.59
2023-02-24T00:17:13.035Z,997.57
2023-02-24T00:18:13.018Z,997.59
2023-02-24T00:19:13.081Z,997.56
2023-02-24T00:20:13.123Z,997.57
2023-02-24T00:21:13.104Z,997.51
2023-02-24T00:22:13.102Z,997.53
2023-02-24T00:23:13.314Z,997.51
2023-02-24T00:24:14.511Z,997.54
2023-02-24T00:25:18.458Z,997.52
2023-02-24T00:26:15.323Z,997.46
2023-02-24T00:27:13.570Z,997.46
2023-02-24T00:28:13.791Z,997.43
2023-02-24T00:29:13.708Z,997.50
2023-02-24T00:30:13.986Z,997.49
2023-02-24T00:31:13.284Z,997.45
2023-02-24T00:32:14.157Z,997.43
2023-02-24T00:33:13.497Z,997.42
2023-02-24T00:34:14.856Z,997.42
2023-02-24T00:35:14.348Z,997.38
2023-02-24T00:36:13.375Z,997.35
2023-02-24T00:37:13.449Z,997.33
2023-02-24T00:38:13.768Z,997.33
2023-02-24T00:39:14.067Z,997.29
2023-02-24T00:40:13.052Z,997.27
2023-02-24T00:41:13.244Z,997.29
2023-02-24T00:42:13.352Z,997.26
2023-02-24T00:43:13.535Z,997.23
2023-02-24T00:44:15.409Z,997.22
2023-02-24T00:45:13.863Z,997.20
2023-02-24T00:46:14.164Z,997.22
2023-02-24T00:47:13.777Z,997.21
2023-02-24T00:48:13.954Z,997.25
2023-02-24T00:49:12.999Z,997.22
2023-02-24T00:50:13.096Z,997.19
2023-02-24T00:51:13.253Z,997.15
2023-02-24T00:52:13.965Z,997.12
2023-02-24T00:53:13.389Z,997.12
2023-02-24T00:54:13.396Z,997.08
2023-02-24T00:55:13.741Z,997.07
2023-02-24T00:56:14.072Z,997.06
2023-02-24T00:57:13.104Z,997.06
2023-02-24T00:58:12.978Z,997.08
2023-02-24T00:59:13.471Z,997.05
2023-02-24T01:00:13.795Z,997.03
2023-02-24T01:01:13.957Z,997.02
2023-02-24T01:02:12.987Z,997.05
2023-02-24T01:03:13.309Z,997.05
2023-02-24T01:04:13.315Z,997.05
2023-02-24T01:05:13.280Z,997.12
2023-02-24T01:06:13.229Z,997.07
2023-02-24T01:07:13.712Z,997.07
2023-02-24T01:08:13.570Z,997.11
2023-02-24T01:09:13.558Z,997.10
2023-02-24T01:10:13.789Z,997.09
2023-02-24T01:11:15.094Z,997.07
2023-02-24T01:12:13.092Z,997.06
2023-02-24T01:13:13.180Z,997.02
2023-02-24T01:14:13.166Z,997.01
2023-02-24T01:15:14.371Z,997.02
2023-02-24T01:16:13.601Z,997.04
2023-02-24T01:17:13.874Z,997.03
2023-02-24T01:18:14.324Z,997.07
2023-02-24T01:19:13.237Z,997.01
2023-02-24T01:20:13.217Z,997.03
2023-02-24T01:21:18.321Z,997.04
2023-02-24T01:22:13.397Z,996.96
2023-02-24T01:23:14.392Z,996.97
2023-02-24T01:24:13.718Z,996.95
2023-02-24T01:25:13.570Z,996.98
2023-02-24T01:26:13.557Z,996.91
2023-02-24T01:27:13.508Z,996.93
2023-02-24T01:28:13.493Z,996.93
2023-02-24T01:29:13.505Z,996.92
2023-02-24T01:30:13.487Z,996.84
2023-02-24T01:31:13.533Z,996.84
2023-02-24T01:32:14.209Z,996.79
2023-02-24T01:33:13.696Z,996.81
2023-02-24T01:34:13.654Z,996.82
2023-02-24T01:35:13.673Z,996.78
2023-02-24T01:36:13.999Z,996.80
2023-02-24T01:37:12.956Z,996.79
2023-02-24T01:38:13.708Z,996.79
2023-02-24T01:39:13.724Z,996.78
2023-02-24T01:40:13.875Z,996.78
2023-02-24T01:41:12.904Z,996.74
2023-02-24T01:42:13.676Z,996.74
2023-02-24T01:43:14.279Z,996.73
2023-02-24T01:44:13.612Z,996.73
2023-02-24T01:45:13.605Z,996.75
2023-02-24T01:46:13.636Z,996.74
2023-02-24T01:47:13.710Z,996.72
2023-02-24T01:48:13.651Z,996.75
2023-02-24T01:49:13.557Z,996.77
2023-02-24T01:50:13.522Z,996.70
2023-02-24T01:51:13.596Z,996.71
2023-02-24T01:52:13.540Z,996.68
2023-02-24T01:53:13.696Z,996.77
2023-02-24T01:54:13.762Z,996.75
2023-02-24T01:55:13.679Z,996.73
2023-02-24T01:56:13.610Z,996.71
2023-02-24T01:57:13.557Z,996.68
2023-02-24T01:58:13.593Z,996.69
2023-02-24T01:59:13.501Z,996.65
2023-02-24T02:00:13.715Z,996.63
2023-02-24T02:01:13.610Z,996.66
2023-02-24T02:02:14.028Z,996.63
2023-02-24T02:03:14.577Z,996.65
2023-02-24T02:04:14.008Z,996.64
2023-02-24T02:05:13.135Z,996.66
2023-02-24T02:06:13.515Z,996.62
2023-02-24T02:07:13.674Z,996.63
2023-02-24T02:08:13.898Z,996.63
2023-02-24T02:09:13.282Z,996.57
2023-02-24T02:10:13.469Z,996.57
2023-02-24T02:11:13.441Z,996.59
2023-02-24T02:12:13.363Z,996.52
2023-02-24T02:13:13.588Z,996.50
2023-02-24T02:14:13.839Z,996.46
2023-02-24T02:15:14.111Z,996.50
2023-02-24T02:16:13.788Z,996.44
2023-02-24T02:17:13.609Z,996.43
2023-02-24T02:18:13.587Z,996.34
2023-02-24T02:19:13.695Z,996.32
2023-02-24T02:20:13.630Z,996.34
2023-02-24T02:21:13.814Z,996.27
2023-02-24T02:22:13.787Z,996.26
2023-02-24T02:23:13.705Z,996.25
2023-02-24T02:24:13.946Z,996.22
2023-02-24T02:25:13.025Z,996.19
2023-02-24T02:26:13.008Z,996.18
2023-02-24T02:27:13.086Z,996.17
2023-02-24T02:28:13.289Z,996.16
2023-02-24T02:29:13.653Z,996.12
2023-02-24T02:30:13.718Z,996.14
2023-02-24T02:31:14.216Z,996.13
2023-02-24T02:32:13.609Z,996.08
2023-02-24T02:33:13.668Z,996.04
2023-02-24T02:34:14.164Z,996.03
2023-02-24T02:35:13.119Z,996.02
2023-02-24T02:36:13.200Z,995.99
2023-02-24T02:37:13.157Z,995.97
2023-02-24T02:38:13.335Z,996.00
2023-02-24T02:39:13.449Z,995.97
2023-02-24T02:40:13.349Z,995.93
2023-02-24T02:41:13.290Z,995.86
2023-02-24T02:42:13.404Z,995.84
2023-02-24T02:43:13.468Z,995.84
2023-02-24T02:44:13.810Z,995.90
2023-02-24T02:45:14.022Z,995.90
2023-02-24T02:46:13.436Z,995.87
2023-02-24T02:47:13.513Z,995.87
2023-02-24T02:48:13.602Z,995.83
2023-02-24T02:49:13.587Z,995.86
2023-02-24T02:50:13.775Z,995.81
2023-02-24T02:51:14.061Z,995.81
2023-02-24T02:52:12.941Z,995.78
2023-02-24T02:53:12.979Z,995.77
2023-02-24T02:54:13.245Z,995.78
2023-02-24T02:55:13.379Z,995.76
2023-02-24T02:56:13.348Z,995.73
2023-02-24T02:57:13.313Z,995.74
2023-02-24T02:58:13.419Z,995.71
2023-02-24T02:59:13.326Z,995.67
2023-02-24T03:00:13.241Z,995.69
2023-02-24T03:01:13.364Z,995.69
2023-02-24T03:02:13.402Z,995.68
2023-02-24T03:03:13.558Z,995.65
2023-02-24T03:04:13.605Z,995.65
2023-02-24T03:05:13.712Z,995.64
2023-02-24T03:06:13.641Z,995.62
2023-02-24T03:07:13.779Z,995.61
2023-02-24T03:08:13.740Z,995.57
2023-02-24T03:09:14.042Z,995.54
2023-02-24T03:10:13.220Z,995.57
2023-02-24T03:11:13.200Z,995.58
2023-02-24T03:12:13.373Z,995.52
2023-02-24T03:13:13.378Z,995.53
2023-02-24T03:14:13.373Z,995.51
2023-02-24T03:15:13.606Z,995.50
2023-02-24T03:16:14.002Z,995.54
2023-02-24T03:17:13.474Z,995.50
2023-02-24T03:18:13.510Z,995.53
2023-02-24T03:19:13.400Z,995.50
2023-02-24T03:20:13.343Z,995.49
2023-02-24T03:21:13.393Z,995.46
2023-02-24T03:22:13.553Z,995.43
2023-02-24T03:23:13.491Z,995.46
2023-02-24T03:24:13.602Z,995.44
2023-02-24T03:25:13.723Z,995.35
2023-02-24T03:26:13.689Z,995.36
2023-02-24T03:27:13.669Z,995.34
2023-02-24T03:28:13.587Z,995.32
2023-02-24T03:29:13.822Z,995.29
2023-02-24T03:30:13.888Z,995.31
2023-02-24T03:31:12.825Z,995.29
2023-02-24T03:32:14.069Z,995.27
2023-02-24T03:33:13.133Z,995.31
2023-02-24T03:34:13.142Z,995.32
2023-02-24T03:35:13.232Z,995.32
2023-02-24T03:36:13.272Z,995.35
2023-02-24T03:37:13.379Z,995.35
2023-02-24T03:38:13.454Z,995.32
2023-02-24T03:39:13.818Z,995.30
2023-02-24T03:40:14.057Z,995.32
2023-02-24T03:41:12.964Z,995.34
2023-02-24T03:42:12.869Z,995.31
2023-02-24T03:43:16.031Z,995.34
2023-02-24T03:44:13.232Z,995.26
2023-02-24T03:45:13.249Z,995.23
2023-02-24T03:46:13.356Z,995.24
2023-02-24T03:47:13.228Z,995.24
2023-02-24T03:48:13.516Z,995.25
2023-02-24T03:49:13.627Z,995.25
2023-02-24T03:50:13.821Z,995.27
2023-02-24T03:51:13.669Z,995.24
2023-02-24T03:52:13.487Z,995.24
2023-02-24T03:53:13.419Z,995.19
2023-02-24T03:54:13.358Z,995.18
2023-02-24T03:55:13.569Z,995.13
2023-02-24T03:56:13.539Z,995.14
2023-02-24T03:57:13.505Z,995.15
2023-02-24T03:58:13.459Z,995.12
2023-02-24T03:59:15.018Z,995.13
2023-02-24T04:00:12.931Z,995.14
2023-02-24T04:01:12.924Z,995.18
2023-02-24T04:02:13.816Z,995.15
2023-02-24T04:03:14.317Z,995.17
2023-02-24T04:04:13.353Z,995.21
2023-02-24T04:05:13.288Z,995.23
2023-02-24T04:06:13.580Z,995.22
2023-02-24T04:07:13.696Z,995.22
2023-02-24T04:08:13.638Z,995.19
2023-02-24T04:09:13.660Z,995.21
2023-02-24T04:10:13.603Z,995.19
2023-02-24T04:11:13.633Z,995.15
2023-02-24T04:12:14.087Z,995.19
2023-02-24T04:13:13.276Z,995.15
2023-02-24T04:14:13.574Z,995.12
2023-02-24T04:15:13.764Z,995.15
2023-02-24T04:16:13.844Z,995.10
2023-02-24T04:17:13.117Z,995.07
2023-02-24T04:18:13.061Z,995.06
2023-02-24T04:19:12.935Z,995.06
2023-02-24T04:20:12.996Z,995.04
2023-02-24T04:21:12.903Z,995.07
2023-02-24T04:22:12.759Z,995.04
2023-02-24T04:23:13.718Z,995.03
2023-02-24T04:24:13.793Z,995.03
2023-02-24T04:25:14.282Z,995.04
2023-02-24T04:26:13.295Z,995.08
2023-02-24T04:27:13.144Z,995.13
2023-02-24T04:28:13.479Z,995.10
2023-02-24T04:29:13.574Z,995.08
2023-02-24T04:30:13.614Z,995.07
2023-02-24T04:31:13.616Z,995.03
2023-02-24T04:32:14.028Z,994.97
2023-02-24T04:33:13.163Z,995.00
2023-02-24T04:34:13.300Z,994.99
2023-02-24T04:35:13.281Z,994.95
2023-02-24T04:36:13.156Z,994.96
2023-02-24T04:37:13.106Z,994.97
2023-02-24T04:38:13.106Z,994.95
2023-02-24T04:39:13.379Z,994.92
2023-02-24T04:40:13.247Z,994.93
2023-02-24T04:41:13.205Z,994.95
2023-02-24T04:42:13.106Z,994.90
2023-02-24T04:43:13.272Z,994.88
2023-02-24T04:44:13.297Z,994.86
2023-02-24T04:45:13.203Z,994.82
2023-02-24T04:46:13.074Z,994.85
2023-02-24T04:47:13.222Z,994.80
2023-02-24T04:48:13.268Z,994.82
2023-02-24T04:49:13.605Z,994.76
2023-02-24T04:50:13.567Z,994.75
2023-02-24T04:51:13.451Z,994.76
2023-02-24T04:52:13.424Z,994.77
2023-02-24T04:53:13.633Z,994.73
2023-02-24T04:54:13.640Z,994.75
2023-02-24T04:55:13.684Z,994.72
2023-02-24T04:56:13.970Z,994.73
2023-02-24T04:57:13.045Z,994.70
2023-02-24T04:58:13.249Z,994.66
2023-02-24T04:59:13.102Z,994.66
2023-02-24T05:00:12.970Z,994.66
2023-02-24T05:01:13.343Z,994.65
2023-02-24T05:02:20.121Z,994.70
2023-02-24T05:03:13.518Z,994.68
2023-02-24T05:04:13.578Z,994.66
2023-02-24T05:05:14.057Z,994.67
2023-02-24T05:06:13.193Z,994.66
2023-02-24T05:07:13.173Z,994.63
2023-02-24T05:08:13.324Z,994.65
2023-02-24T05:09:13.360Z,994.68
2023-02-24T05:10:13.285Z,994.63
2023-02-24T05:11:13.526Z,994.65
2023-02-24T05:12:13.830Z,994.61
2023-02-24T05:13:14.141Z,994.61
2023-02-24T05:14:13.090Z,994.61
2023-02-24T05:15:12.989Z,994.57
2023-02-24T05:16:12.960Z,994.55
2023-02-24T05:17:12.968Z,994.57
2023-02-24T05:18:12.806Z,994.52
2023-02-24T05:19:14.328Z,994.52
2023-02-24T05:20:13.578Z,994.50
2023-02-24T05:21:13.810Z,994.51
2023-02-24T05:22:13.858Z,994.47
2023-02-24T05:23:13.925Z,994.50
2023-02-24T05:24:18.076Z,994.47
2023-02-24T05:25:13.234Z,994.47
2023-02-24T05:26:13.248Z,994.47
2023-02-24T05:27:13.302Z,994.44
2023-02-24T05:28:13.524Z,994.43
2023-02-24T05:29:13.448Z,994.42
2023-02-24T05:30:13.336Z,994.45
2023-02-24T05:31:13.365Z,994.43
2023-02-24T05:32:13.565Z,994.41
2023-02-24T05:33:13.929Z,994.41
2023-02-24T05:34:13.283Z,994.39
2023-02-24T05:35:13.255Z,994.37
2023-02-24T05:36:13.329Z,994.35
2023-02-24T05:37:13.271Z,994.34
2023-02-24T05:38:13.271Z,994.36
2023-02-24T05:39:13.508Z,994.34
2023-02-24T05:40:13.355Z,994.34
2023-02-24T05:41:13.446Z,994.29
2023-02-24T05:42:13.393Z,994.23
2023-02-24T05:43:13.279Z,994.22
2023-02-24T05:44:13.235Z,994.25
2023-02-24T05:45:13.316Z,994.19
2023-02-24T05:46:13.344Z,994.17
2023-02-24T05:47:13.357Z,994.16
2023-02-24T05:48:13.484Z,994.15
2023-02-24T05:49:13.677Z,994.15
2023-02-24T05:50:13.768Z,994.15
2023-02-24T05:51:13.726Z,994.08
2023-02-24T05:52:13.625Z,994.08
2023-02-24T05:53:13.551Z,994.07
2023-02-24T05:54:18.726Z,994.08
2023-02-24T05:55:14.009Z,994.05
2023-02-24T05:56:12.977Z,994.04
2023-02-24T05:57:12.957Z,994.01
2023-02-24T05:58:12.931Z,993.98
2023-02-24T05:59:13.032Z,994.02
2023-02-24T06:00:12.931Z,994.00
2023-02-24T06:01:13.357Z,993.98
2023-02-24T06:02:13.334Z,993.97
2023-02-24T06:03:13.340Z,993.96
2023-02-24T06:04:13.561Z,993.95
2023-02-24T06:05:13.544Z,993.96
2023-02-24T06:06:13.548Z,993.97
2023-02-24T06:07:13.393Z,993.95
2023-02-24T06:08:13.498Z,993.93
2023-02-24T06:09:13.642Z,993.89
2023-02-24T06:10:13.545Z,993.88
2023-02-24T06:11:13.493Z,993.90
2023-02-24T06:12:13.434Z,993.90
2023-02-24T06:13:18.446Z,993.91
2023-02-24T06:14:13.416Z,993.89
2023-02-24T06:15:13.511Z,993.89
2023-02-24T06:16:13.570Z,993.89
2023-02-24T06:17:13.548Z,993.87
2023-02-24T06:18:14.618Z,993.86
2023-02-24T06:19:13.574Z,993.82
2023-02-24T06:20:13.732Z,993.80
2023-02-24T06:21:13.807Z,993.78
2023-02-24T06:22:13.722Z,993.81
2023-02-24T06:23:14.046Z,993.76
2023-02-24T06:24:13.172Z,993.75
2023-02-24T06:25:18.149Z,993.78
2023-02-24T06:26:13.299Z,993.74
2023-02-24T06:27:13.614Z,993.75
2023-02-24T06:28:13.595Z,993.75
2023-02-24T06:29:13.730Z,993.72
2023-02-24T06:30:14.198Z,993.68
2023-02-24T06:31:13.230Z,993.71
2023-02-24T06:32:54.866Z,993.72
2023-02-24T06:33:13.123Z,993.70
2023-02-24T06:34:14.231Z,993.64
2023-02-24T06:35:13.315Z,993.64
2023-02-24T06:36:13.675Z,993.62
2023-02-24T06:37:14.170Z,993.60
2023-02-24T06:38:13.412Z,993.62
2023-02-24T06:39:13.463Z,993.58
2023-02-24T06:40:13.562Z,993.57
2023-02-24T06:41:13.648Z,993.58
2023-02-24T06:42:13.952Z,993.52
2023-02-24T06:43:13.286Z,993.50
2023-02-24T06:44:13.569Z,993.52
2023-02-24T06:45:13.484Z,993.54
2023-02-24T06:46:13.525Z,993.51
2023-02-24T06:47:13.691Z,993.54
2023-02-24T06:48:13.620Z,993.52
2023-02-24T06:49:13.690Z,993.49
2023-02-24T06:50:13.774Z,993.50
2023-02-24T06:51:13.791Z,993.44
2023-02-24T06:52:13.955Z,993.48
2023-02-24T06:53:13.110Z,993.42
2023-02-24T06:54:13.264Z,993.46
2023-02-24T06:55:13.185Z,993.47
2023-02-24T06:56:13.196Z,993.43
2023-02-24T06:57:13.207Z,993.45
2023-02-24T06:58:13.516Z,993.44
2023-02-24T06:59:14.652Z,993.41
2023-02-24T07:00:13.646Z,993.46
2023-02-24T07:01:13.850Z,993.39
2023-02-24T07:02:14.095Z,993.40
2023-02-24T07:03:13.137Z,993.44
2023-02-24T07:04:13.144Z,993.41
2023-02-24T07:05:13.184Z,993.39
2023-02-24T07:06:14.310Z,993.35
2023-02-24T07:07:13.499Z,993.36
2023-02-24T07:08:13.684Z,993.37
2023-02-24T07:09:13.758Z,993.38
2023-02-24T07:10:14.008Z,993.38
2023-02-24T07:11:13.083Z,993.33
2023-02-24T07:12:13.194Z,993.35
2023-02-24T07:13:13.547Z,993.35
2023-02-24T07:14:13.977Z,993.37
2023-02-24T07:15:13.517Z,993.39
2023-02-24T07:16:13.801Z,993.36
2023-02-24T07:17:14.029Z,993.36
2023-02-24T07:18:13.411Z,993.39
2023-02-24T07:19:13.779Z,993.44
2023-02-24T07:20:13.140Z,993.43
2023-02-24T07:21:13.331Z,993.40
2023-02-24T07:22:13.409Z,993.36
2023-02-24T07:23:13.951Z,993.40
2023-02-24T07:24:13.276Z,993.34
2023-02-24T07:25:13.619Z,993.33
2023-02-24T07:26:14.239Z,993.28
2023-02-24T07:27:13.486Z,993.25
2023-02-24T07:28:13.959Z,993.31
2023-02-24T07:29:14.019Z,993.28
2023-02-24T07:30:13.554Z,993.27
2023-02-24T07:31:15.523Z,993.23
2023-02-24T07:32:15.337Z,993.25
2023-02-24T07:33:19.020Z,993.21
2023-02-24T07:34:15.291Z,993.22
2023-02-24T07:35:13.701Z,993.18
2023-02-24T07:36:14.828Z,993.19
2023-02-24T07:37:14.327Z,993.15
2023-02-24T07:38:14.579Z,993.12
2023-02-24T07:39:14.031Z,993.08
2023-02-24T07:40:13.757Z,993.08
2023-02-24T07:41:15.528Z,993.07
2023-02-24T07:42:14.317Z,993.06
2023-02-24T07:43:14.076Z,993.05
2023-02-24T07:44:13.615Z,993.07
2023-02-24T07:45:19.492Z,993.02
2023-02-24T07:46:14.387Z,992.99
2023-02-24T07:47:13.732Z,992.95
2023-02-24T07:48:14.606Z,992.95
2023-02-24T07:49:15.259Z,992.96
2023-02-24T07:50:14.181Z,992.92
2023-02-24T07:51:14.379Z,992.94
2023-02-24T07:52:14.770Z,992.88
2023-02-24T07:53:14.280Z,992.87
2023-02-24T07:54:13.786Z,992.80
2023-02-24T07:55:14.436Z,992.81
2023-02-24T07:56:14.171Z,992.83
2023-02-24T07:57:14.360Z,992.76
2023-02-24T07:58:14.354Z,992.79
2023-02-24T07:59:14.102Z,992.76
2023-02-24T08:00:14.602Z,992.75
2023-02-24T08:01:14.789Z,992.80
2023-02-24T08:02:14.577Z,992.78
2023-02-24T08:03:14.192Z,992.75
2023-02-24T08:04:13.373Z,992.74
2023-02-24T08:05:13.356Z,992.74
2023-02-24T08:06:13.418Z,992.69
2023-02-24T08:07:13.326Z,992.66
2023-02-24T08:08:13.388Z,992.67
2023-02-24T08:09:13.405Z,992.62
2023-02-24T08:10:13.425Z,992.60
2023-02-24T08:11:13.696Z,992.56
2023-02-24T08:12:13.797Z,992.54
2023-02-24T08:13:13.778Z,992.55
2023-02-24T08:14:13.766Z,992.49
2023-02-24T08:15:13.718Z,992.46
2023-02-24T08:16:13.744Z,992.43
2023-02-24T08:17:15.217Z,992.40
2023-02-24T08:18:13.424Z,992.40
2023-02-24T08:19:13.357Z,992.35
2023-02-24T08:20:13.330Z,992.32
2023-02-24T08:21:13.321Z,992.34
2023-02-24T08:22:13.512Z,992.34
2023-02-24T08:23:13.870Z,992.35
2023-02-24T08:24:13.986Z,992.29
2023-02-24T08:25:13.147Z,992.31
2023-02-24T08:26:13.275Z,992.30
2023-02-24T08:27:13.470Z,992.34
2023-02-24T08:28:13.404Z,992.27
2023-02-24T08:29:14.021Z,992.25
2023-02-24T08:30:14.972Z,992.23
2023-02-24T08:31:13.219Z,992.25
2023-02-24T08:32:13.329Z,992.29
2023-02-24T08:33:13.561Z,992.22
2023-02-24T08:34:13.664Z,992.22
2023-02-24T08:35:13.876Z,992.21
2023-02-24T08:36:13.888Z,992.24
2023-02-24T08:37:13.900Z,992.20
2023-02-24T08:38:12.961Z,992.21
2023-02-24T08:39:12.990Z,992.21
2023-02-24T08:40:12.857Z,992.18
2023-02-24T08:41:13.776Z,992.22
2023-02-24T08:42:19.922Z,992.18
2023-02-24T08:43:13.032Z,992.17
2023-02-24T08:44:13.104Z,992.17
2023-02-24T08:45:13.205Z,992.18
2023-02-24T08:46:14.062Z,992.14
2023-02-24T08:47:13.118Z,992.12
2023-02-24T08:48:13.385Z,992.12
2023-02-24T08:49:13.361Z,992.08
2023-02-24T08:50:13.437Z,992.05
2023-02-24T08:51:45.859Z,992.04
2023-02-24T08:52:14.240Z,992.01
2023-02-24T08:53:13.164Z,992.03
2023-02-24T08:54:13.240Z,991.95
2023-02-24T08:55:13.250Z,991.99
2023-02-24T08:56:13.452Z,991.95
2023-02-24T08:57:13.443Z,991.90
2023-02-24T08:58:13.417Z,991.94
2023-02-24T08:59:13.458Z,991.90
2023-02-24T09:00:13.587Z,991.92
2023-02-24T09:01:13.529Z,991.87
2023-02-24T09:02:13.952Z,991.88
2023-02-24T09:03:13.749Z,991.88
2023-02-24T09:04:13.658Z,991.92
2023-02-24T09:05:14.675Z,991.87
2023-02-24T09:06:14.107Z,991.85
2023-02-24T09:07:13.009Z,991.83
2023-02-24T09:08:13.154Z,991.85
2023-02-24T09:09:13.683Z,991.81
2023-02-24T09:10:14.111Z,991.86
2023-02-24T09:11:13.587Z,991.79
2023-02-24T09:12:14.026Z,991.78
2023-02-24T09:13:13.170Z,991.76
2023-02-24T09:14:26.630Z,991.76
2023-02-24T09:15:13.991Z,991.74
2023-02-24T09:16:13.048Z,991.73
2023-02-24T09:17:13.236Z,991.70
2023-02-24T09:18:13.173Z,991.69
2023-02-24T09:19:13.354Z,991.72
2023-02-24T09:20:13.520Z,991.70
2023-02-24T09:21:13.514Z,991.70
2023-02-24T09:22:20.779Z,991.71
2023-02-24T09:23:13.223Z,991.73
2023-02-24T09:24:15.456Z,991.75
2023-02-24T09:25:13.837Z,991.69
2023-02-24T09:26:13.934Z,991.73
2023-02-24T09:27:12.914Z,991.71
2023-02-24T09:28:13.058Z,991.66
2023-02-24T09:29:13.070Z,991.71
2023-02-24T09:30:13.303Z,991.68
2023-02-24T09:31:13.904Z,991.70
2023-02-24T09:32:13.353Z,991.69
2023-02-24T09:33:13.780Z,991.70
2023-02-24T09:34:13.273Z,991.63
2023-02-24T09:35:13.474Z,991.66
2023-02-24T09:36:13.629Z,991.62
2023-02-24T09:37:13.566Z,991.61
2023-02-24T09:38:13.691Z,991.50
2023-02-24T09:39:13.839Z,991.43
2023-02-24T09:40:13.878Z,991.43
2023-02-24T09:41:18.828Z,991.40
2023-02-24T09:42:13.395Z,991.34
2023-02-24T09:43:39.893Z,991.29
2023-02-24T09:44:16.381Z,991.31
2023-02-24T09:45:13.547Z,991.33
2023-02-24T09:46:14.053Z,991.38
2023-02-24T09:47:13.274Z,991.34
2023-02-24T09:48:13.367Z,991.34
2023-02-24T09:49:13.483Z,991.31
2023-02-24T09:50:13.842Z,991.31
2023-02-24T09:51:14.085Z,991.22
2023-02-24T09:52:13.141Z,991.18
2023-02-24T09:53:13.562Z,991.17
2023-02-24T09:54:13.599Z,991.22
2023-02-24T09:55:13.803Z,991.24
2023-02-24T09:56:13.785Z,991.15
2023-02-24T09:57:13.839Z,991.16
2023-02-24T09:58:14.091Z,991.13
2023-02-24T09:59:13.084Z,991.11
2023-02-24T10:00:13.029Z,991.09
2023-02-24T10:01:13.143Z,990.98
2023-02-24T10:02:13.269Z,991.07
2023-02-24T10:03:13.291Z,991.05
2023-02-24T10:04:20.803Z,991.06
2023-02-24T10:05:13.564Z,991.07
2023-02-24T10:06:13.601Z,991.01
2023-02-24T10:07:14.099Z,991.02
2023-02-24T10:08:13.083Z,991.05
2023-02-24T10:09:13.202Z,991.02
2023-02-24T10:10:13.259Z,991.06
2023-02-24T10:11:14.378Z,991.02
2023-02-24T10:12:13.570Z,990.99
2023-02-24T10:13:13.655Z,991.01
2023-02-24T10:14:14.026Z,990.92
2023-02-24T10:15:13.169Z,990.95
2023-02-24T10:16:13.499Z,990.92
2023-02-24T10:17:13.689Z,990.98
2023-02-24T10:18:13.875Z,990.96
2023-02-24T10:19:13.959Z,990.94
2023-02-24T10:20:12.893Z,990.87
2023-02-24T10:21:13.006Z,990.86
2023-02-24T10:22:13.008Z,990.87
2023-02-24T10:23:13.271Z,990.86
2023-02-24T10:24:13.253Z,990.82
2023-02-24T10:25:13.295Z,990.74
2023-02-24T10:26:13.573Z,990.83
2023-02-24T10:27:16.804Z,990.80
2023-02-24T10:28:12.996Z,990.77
2023-02-24T10:29:13.201Z,990.72
2023-02-24T10:30:13.238Z,990.72
2023-02-24T10:31:13.842Z,990.71
2023-02-24T10:32:13.379Z,990.69
2023-02-24T10:33:19.700Z,990.73
2023-02-24T10:34:13.725Z,990.58
2023-02-24T10:35:14.060Z,990.68
2023-02-24T10:36:13.139Z,990.67
2023-02-24T10:37:27.257Z,990.57
2023-02-24T10:38:18.615Z,990.65
2023-02-24T10:39:14.782Z,990.65
2023-02-24T10:40:13.886Z,990.60
2023-02-24T10:41:13.222Z,990.63
2023-02-24T10:42:13.573Z,990.63
2023-02-24T10:43:13.703Z,990.52
2023-02-24T10:44:13.749Z,990.52
2023-02-24T10:45:17.658Z,990.59
2023-02-24T10:46:13.437Z,990.54
2023-02-24T10:47:13.807Z,990.47
2023-02-24T10:48:15.539Z,990.54
2023-02-24T10:49:13.704Z,990.47
2023-02-24T10:50:14.069Z,990.46
2023-02-24T10:51:13.427Z,990.54
2023-02-24T10:52:13.685Z,990.50
2023-02-24T10:53:13.841Z,990.54
2023-02-24T10:54:13.853Z,990.53
2023-02-24T10:55:13.918Z,990.54
2023-02-24T10:56:13.200Z,990.46
2023-02-24T10:57:13.235Z,990.46
2023-02-24T10:58:13.432Z,990.43
2023-02-24T10:59:13.727Z,990.36
2023-02-24T11:00:13.729Z,990.39
2023-02-24T11:01:13.847Z,990.36
2023-02-24T11:02:12.753Z,990.34
2023-02-24T11:03:19.482Z,990.37
2023-02-24T11:04:12.988Z,990.31
2023-02-24T11:05:12.889Z,990.31
2023-02-24T11:06:13.046Z,990.22
2023-02-24T11:07:12.990Z,990.24
2023-02-24T11:08:13.071Z,990.27
2023-02-24T11:09:13.267Z,990.19
2023-02-24T11:10:13.494Z,990.12
2023-02-24T11:11:13.386Z,990.09
2023-02-24T11:12:13.325Z,990.02
2023-02-24T11:13:13.654Z,990.01
2023-02-24T11:14:13.715Z,989.98
2023-02-24T11:15:13.816Z,990.04
2023-02-24T11:16:14.189Z,990.06
2023-02-24T11:17:13.332Z,989.99
2023-02-24T11:18:13.493Z,989.99
2023-02-24T11:19:13.573Z,989.96
2023-02-24T11:20:14.080Z,989.97
2023-02-24T11:21:13.296Z,989.96
2023-02-24T11:22:13.398Z,989.96
2023-02-24T11:23:13.425Z,990.00
2023-02-24T11:24:13.327Z,989.95
2023-02-24T11:25:13.401Z,989.94
2023-02-24T11:26:13.619Z,989.96
2023-02-24T11:27:13.694Z,989.85
2023-02-24T11:28:14.032Z,989.76
2023-02-24T11:29:12.949Z,989.74
2023-02-24T11:30:12.947Z,989.74
2023-02-24T11:31:13.532Z,989.79
2023-02-24T11:32:15.483Z,989.81
2023-02-24T11:33:13.843Z,989.79
2023-02-24T11:34:14.222Z,989.77
2023-02-24T11:35:13.143Z,989.73
2023-02-24T11:36:13.201Z,989.72
2023-02-24T11:37:13.318Z,989.61
2023-02-24T11:38:13.879Z,989.67
2023-02-24T11:39:20.466Z,989.62
2023-02-24T11:40:13.766Z,989.60
2023-02-24T11:41:13.855Z,989.50
2023-02-24T11:42:14.023Z,989.52
2023-02-24T11:43:13.755Z,989.55
2023-02-24T11:44:15.360Z,989.54
2023-02-24T11:45:13.978Z,989.56
2023-02-24T11:46:13.058Z,989.58
2023-02-24T11:47:13.178Z,989.53
2023-02-24T11:48:13.373Z,989.49
2023-02-24T11:49:13.519Z,989.50
2023-02-24T11:50:13.433Z,989.44
2023-02-24T11:51:13.498Z,989.41
2023-02-24T11:52:13.874Z,989.35
2023-02-24T11:53:13.885Z,989.43
2023-02-24T11:54:13.944Z,989.41
2023-02-24T11:55:12.901Z,989.40
2023-02-24T11:56:13.354Z,989.39
2023-02-24T11:57:13.625Z,989.28
2023-02-24T11:58:13.800Z,989.33
2023-02-24T11:59:13.732Z,989.38
2023-02-24T12:00:13.813Z,989.31
2023-02-24T12:01:13.665Z,989.32
2023-02-24T12:02:13.815Z,989.35
2023-02-24T12:03:13.852Z,989.28
2023-02-24T12:04:12.917Z,989.32
2023-02-24T12:05:12.795Z,989.30
2023-02-24T12:06:13.675Z,989.25
2023-02-24T12:07:13.507Z,989.29
2023-02-24T12:08:13.501Z,989.22
2023-02-24T12:09:13.711Z,989.21
2023-02-24T12:10:17.411Z,989.16
2023-02-24T12:11:13.706Z,989.16
2023-02-24T12:12:14.086Z,989.05
2023-02-24T12:13:13.500Z,989.12
2023-02-24T12:14:13.653Z,989.14
2023-02-24T12:15:13.487Z,989.17
2023-02-24T12:16:13.642Z,989.14
2023-02-24T12:17:14.200Z,989.07
2023-02-24T12:18:13.857Z,989.13
2023-02-24T12:19:12.991Z,989.14
2023-02-24T12:20:12.904Z,989.03
2023-02-24T12:21:13.170Z,989.07
2023-02-24T12:22:13.217Z,989.00
2023-02-24T12:23:13.091Z,988.90
2023-02-24T12:24:13.116Z,989.00
2023-02-24T12:25:13.161Z,988.92
2023-02-24T12:26:13.029Z,988.89
2023-02-24T12:27:13.019Z,988.86
2023-02-24T12:28:13.612Z,988.87